Belding, Michigan
Current Conditions -  °F | °C
As of 12:14 PM on Saturday 25 Oct 2014 (Local Time) from KY70 Reporting Station
Broken Clouds Broken Clouds  
Wind Chill: 62°   Ceiling: 2100
Heat Index: 62°   Visibility: 10mi
Dew Point: 51°   Wind: 14mph
Humidity: 67%   Direction: 280°W
Pressure: 29.82"   Gusts: 26mph
Location:  43.1°N, 85.23°W
Report Text: KY70 251614Z AUTO 28012G23KT 10SM BKN021 BKN026 17/10 A2982 RMK AO2 T01660104
Loading
Personal Weather Stations






























Interactive Weather Map
Tropical Storm Tracking
New forecast layout! Learn more

10-Day Weather Forecast

Advertisements
Track Severe Weather on mobile